Time;durP1;ratioP1;P1;durP2;ratioP2;P2;SDS_P1;SDS_P2;PMS_P1;PMS_P2;Temp;Humidity;BMP_temperature;BMP_pressure;BME280_temperature;BME280_humidity;BME280_pressure;Samples;Min_cycle;Max_cycle;Signal;HPM_P1;HPM_P2
2021/10/13 00:00:30;;;;;;;3.15;1.92;;;;;;;5.44;100.00;93273.44;2124179;27;20456;-80
2021/10/13 00:01:31;;;;;;;3.15;1.38;;;;;;;5.52;100.00;93270.41;2107131;28;20020;-78
2021/10/13 00:02:32;;;;;;;1.80;1.70;;;;;;;5.49;100.00;93278.41;2115637;27;20076;-80
2021/10/13 00:03:33;;;;;;;1.95;1.40;;;;;;;5.39;100.00;93271.94;2115331;28;20039;-79
2021/10/13 00:04:34;;;;;;;1.85;1.67;;;;;;;5.34;100.00;93267.00;2107073;28;20031;-79
2021/10/13 00:05:35;;;;;;;2.00;1.80;;;;;;;5.37;100.00;93270.81;2099350;28;20099;-81
2021/10/13 00:06:35;;;;;;;2.42;1.65;;;;;;;5.34;100.00;93269.66;2098733;28;20028;-79
2021/10/13 00:07:39;;;;;;;1.85;1.70;;;;;;;5.29;100.00;93272.69;2100271;28;20032;-79
2021/10/13 00:08:40;;;;;;;3.60;1.63;;;;;;;5.26;100.00;93274.19;2102833;28;20048;-80
2021/10/13 00:09:40;;;;;;;3.08;2.10;;;;;;;5.23;100.00;93271.56;2107030;28;20051;-81
2021/10/13 00:10:42;;;;;;;2.38;1.92;;;;;;;5.30;100.00;93271.56;2098518;28;20389;-81
2021/10/13 00:11:43;;;;;;;1.90;1.80;;;;;;;5.38;100.00;93273.06;2098726;28;20047;-80
2021/10/13 00:12:44;;;;;;;2.40;1.73;;;;;;;5.41;100.00;93269.69;2106994;28;20452;-79
2021/10/13 00:13:45;;;;;;;1.77;1.65;;;;;;;5.35;100.00;93265.13;2107110;28;20073;-80
2021/10/13 00:14:46;;;;;;;4.15;1.70;;;;;;;5.33;100.00;93273.47;2107121;28;20020;-81
2021/10/13 00:15:47;;;;;;;1.90;1.73;;;;;;;5.31;100.00;93273.06;2107772;28;20020;-80
2021/10/13 00:16:57;;;;;;;1.75;1.60;;;;;;;5.17;100.00;93281.00;2098688;28;20127;-79
2021/10/13 00:17:58;;;;;;;4.00;2.03;;;;;;;5.17;100.00;93275.72;2092963;28;20032;-80
2021/10/13 00:18:59;;;;;;;2.08;1.65;;;;;;;5.28;100.00;93273.84;2098742;28;20021;-80
2021/10/13 00:20:02;;;;;;;1.80;1.70;;;;;;;5.19;100.00;93273.47;2106982;28;20028;-80
2021/10/13 00:21:03;;;;;;;2.38;2.10;;;;;;;5.21;100.00;93277.22;2111625;28;20022;-79
2021/10/13 00:22:04;;;;;;;1.70;1.60;;;;;;;5.24;100.00;93279.13;2107064;28;20062;-79
2021/10/13 00:23:05;;;;;;;2.05;1.88;;;;;;;5.21;100.00;93277.22;2110474;28;20040;-81
2021/10/13 00:24:06;;;;;;;1.95;1.70;;;;;;;5.25;100.00;93290.50;2106961;28;20099;-79
2021/10/13 00:25:07;;;;;;;2.05;1.60;;;;;;;5.26;100.00;93284.78;2111999;28;20023;-81
2021/10/13 00:26:08;;;;;;;1.70;1.60;;;;;;;5.39;100.00;93285.19;2106253;28;20032;-80
2021/10/13 00:27:09;;;;;;;2.38;1.63;;;;;;;5.39;100.00;93297.69;2106869;28;20016;-81
2021/10/13 00:28:10;;;;;;;1.92;1.40;;;;;;;5.41;100.00;93279.53;2115418;28;20031;-80
2021/10/13 00:29:11;;;;;;;2.30;1.90;;;;;;;5.34;100.00;93293.53;2109612;28;20048;-79
2021/10/13 00:30:12;;;;;;;4.80;1.50;;;;;;;5.30;100.00;93285.56;2112939;28;20032;-80
2021/10/13 00:31:13;;;;;;;5.40;1.70;;;;;;;5.31;100.00;93286.31;2115348;28;20450;-80
2021/10/13 00:32:14;;;;;;;2.13;1.67;;;;;;;5.32;100.00;93285.19;2106803;28;20027;-79
2021/10/13 00:33:14;;;;;;;5.70;1.75;;;;;;;5.28;100.00;93279.13;2109011;28;20388;-81
2021/10/13 00:34:16;;;;;;;3.17;1.60;;;;;;;5.27;100.00;93283.69;2106925;28;20117;-81
2021/10/13 00:35:16;;;;;;;1.98;1.70;;;;;;;5.29;100.00;93293.91;2098623;28;20029;-79
2021/10/13 00:36:17;;;;;;;4.72;1.92;;;;;;;5.39;100.00;93284.44;2090148;28;20481;-79
2021/10/13 00:37:18;;;;;;;3.28;1.80;;;;;;;5.42;100.00;93287.09;2105189;28;20055;-80
2021/10/13 00:38:19;;;;;;;5.30;2.10;;;;;;;5.30;100.00;93287.47;2098523;28;20028;-80
2021/10/13 00:39:20;;;;;;;2.20;2.00;;;;;;;5.26;100.00;93292.00;2098528;28;20107;-81
2021/10/13 00:40:21;;;;;;;2.25;2.00;;;;;;;5.21;100.00;93289.72;2098560;28;20029;-79
2021/10/13 00:41:25;;;;;;;2.08;1.67;;;;;;;5.13;100.00;93294.25;2098393;28;20107;-80
2021/10/13 00:42:26;;;;;;;3.92;2.13;;;;;;;5.17;100.00;93289.72;2106875;28;20030;-80
2021/10/13 00:43:27;;;;;;;2.13;1.92;;;;;;;5.20;100.00;93293.50;2110547;28;20026;-80
2021/10/13 00:44:28;;;;;;;3.60;1.90;;;;;;;5.20;100.00;93298.81;2106752;28;20050;-80
2021/10/13 00:45:28;;;;;;;8.13;2.35;;;;;;;5.15;100.00;93292.00;2106797;28;20039;-80
2021/10/13 00:46:29;;;;;;;6.28;2.40;;;;;;;5.20;100.00;93298.81;2106968;28;20020;-81
2021/10/13 00:47:30;;;;;;;2.63;2.05;;;;;;;5.21;100.00;93297.66;2114456;28;20023;-80
2021/10/13 00:48:31;;;;;;;3.30;2.10;;;;;;;5.14;100.00;93297.69;2114855;28;20020;-79
2021/10/13 00:49:32;;;;;;;2.17;1.88;;;;;;;5.11;100.00;93304.47;2115228;28;20432;-80
2021/10/13 00:50:33;;;;;;;3.60;2.50;;;;;;;5.10;100.00;93296.91;2106882;28;20043;-80
2021/10/13 00:51:34;;;;;;;2.92;2.20;;;;;;;5.06;100.00;93304.84;2106256;28;20491;-80
2021/10/13 00:52:41;;;;;;;3.03;2.08;;;;;;;5.03;100.00;93293.09;2090263;28;20037;-80
2021/10/13 00:53:42;;;;;;;3.40;2.08;;;;;;;5.05;100.00;93298.78;2083338;28;20036;-81
2021/10/13 00:54:44;;;;;;;2.15;1.95;;;;;;;5.02;100.00;93307.47;2098521;28;20035;-81
2021/10/13 00:55:45;;;;;;;3.70;2.35;;;;;;;5.08;100.00;93309.75;2107378;28;20031;-81
2021/10/13 00:56:46;;;;;;;8.65;2.60;;;;;;;5.10;100.00;93310.16;2107392;28;20076;-80
2021/10/13 00:57:50;;;;;;;4.75;2.40;;;;;;;5.13;100.00;93302.19;2107402;28;20077;-80
2021/10/13 00:58:51;;;;;;;4.80;2.25;;;;;;;5.15;100.00;93307.13;2098260;28;20025;-81
2021/10/13 00:59:52;;;;;;;5.70;3.00;;;;;;;5.11;100.00;93307.13;2081969;28;20083;-79
2021/10/13 01:00:58;;;;;;;6.07;2.47;;;;;;;5.11;100.00;93307.13;2098570;28;20020;-82
2021/10/13 01:02:04;;;;;;;3.42;2.05;;;;;;;5.20;100.00;93310.16;2098343;28;20021;-80
2021/10/13 01:03:47;;;;;;;2.78;2.50;;;;;;;5.13;100.00;93306.75;2099201;28;20024;-79
2021/10/13 01:05:13;;;;;;;2.53;2.33;;;;;;;5.19;100.00;93305.25;2065092;28;20562;-81
2021/10/13 01:06:31;;;;;;;2.33;2.13;;;;;;;5.18;100.00;93307.16;2060600;28;20033;-79
2021/10/13 01:07:44;;;;;;;3.15;2.58;;;;;;;5.15;100.00;93315.09;2067591;28;20034;-79
2021/10/13 01:09:05;;;;;;;3.03;2.30;;;;;;;5.19;100.00;93313.97;2068536;28;20062;-81
2021/10/13 01:10:26;;;;;;;3.55;2.25;;;;;;;5.12;100.00;93315.81;2080870;28;20045;-80
2021/10/13 01:11:32;;;;;;;2.67;2.10;;;;;;;5.14;100.00;93314.34;2115178;28;20085;-79
2021/10/13 01:12:54;;;;;;;3.35;2.40;;;;;;;5.22;100.00;93315.09;2107577;28;20062;-81
2021/10/13 01:14:27;;;;;;;2.40;2.20;;;;;;;5.23;100.00;93308.66;2115329;28;20486;-82
2021/10/13 01:15:31;;;;;;;2.28;2.15;;;;;;;5.26;100.00;93305.25;2106513;28;20032;-80
2021/10/13 01:16:45;;;;;;;2.35;2.15;;;;;;;5.32;100.00;93309.06;2090668;28;20041;-79
2021/10/13 01:18:04;;;;;;;2.15;1.77;;;;;;;5.27;100.00;93312.84;2101746;28;20077;-80
2021/10/13 01:19:36;;;;;;;2.70;2.20;;;;;;;5.28;100.00;93317.00;2109113;28;20027;-80
2021/10/13 01:21:07;;;;;;;6.45;2.22;;;;;;;5.20;100.00;93320.00;2111033;28;20072;-80
2021/10/13 01:22:23;;;;;;;3.10;2.05;;;;;;;5.19;100.00;93323.81;2110808;28;20489;-81
2021/10/13 01:24:01;;;;;;;4.22;2.47;;;;;;;5.14;100.00;93318.88;2108589;28;20090;-79
2021/10/13 01:25:38;;;;;;;2.40;2.20;;;;;;;5.06;100.00;93320.75;2103274;28;20024;-79
2021/10/13 01:27:06;;;;;;;2.92;2.42;;;;;;;5.06;100.00;93320.75;2114529;28;20022;-82
2021/10/13 01:28:18;;;;;;;2.60;2.40;;;;;;;4.93;100.00;93322.22;2091508;28;20458;-79
2021/10/13 01:29:21;;;;;;;3.25;2.95;;;;;;;4.90;100.00;93329.00;2114919;28;20023;-81
2021/10/13 01:30:24;;;;;;;2.72;2.53;;;;;;;4.87;100.00;93321.06;2110862;27;20047;-80
2021/10/13 01:31:29;;;;;;;3.80;2.67;;;;;;;4.86;100.00;93322.94;2115331;28;20031;-81
2021/10/13 01:34:28;;;;;;;2.80;2.60;;;;;;;4.86;100.00;93324.84;2115529;28;20036;-80
2021/10/13 01:35:34;;;;;;;2.92;2.70;;;;;;;4.78;100.00;93319.53;2114558;28;20510;-79
2021/10/13 01:36:40;;;;;;;3.75;2.78;;;;;;;4.78;100.00;93318.75;2107279;28;20111;-77
2021/10/13 01:37:48;;;;;;;2.83;2.63;;;;;;;4.78;100.00;93314.25;2114929;28;20030;-79
2021/10/13 01:38:52;;;;;;;3.22;2.70;;;;;;;4.74;100.00;93326.72;2115061;28;20015;-79
2021/10/13 01:39:56;;;;;;;5.68;2.70;;;;;;;4.74;100.00;93331.22;2114884;28;20467;-79
2021/10/13 01:41:00;;;;;;;4.85;2.72;;;;;;;4.64;100.00;93329.31;2115075;28;20023;-80
2021/10/13 01:42:05;;;;;;;11.50;2.90;;;;;;;4.63;100.00;93333.84;2114815;28;20047;-79
2021/10/13 01:43:06;;;;;;;6.18;3.17;;;;;;;4.56;100.00;93331.16;2123175;27;20883;-79
2021/10/13 01:44:13;;;;;;;4.15;2.67;;;;;;;4.50;100.00;93330.00;2106376;28;20024;-80
2021/10/13 01:45:16;;;;;;;2.70;2.50;;;;;;;4.47;100.00;93331.50;2107242;28;20095;-79
2021/10/13 01:47:21;;;;;;;2.67;2.47;;;;;;;4.42;100.00;93331.84;2106489;28;20027;-79
2021/10/13 01:48:56;;;;;;;2.67;2.47;;;;;;;4.34;100.00;93334.81;2123132;27;20028;-78
2021/10/13 01:49:58;;;;;;;2.60;2.40;;;;;;;4.34;100.00;93332.19;2114857;28;20481;-79
2021/10/13 01:51:00;;;;;;;4.05;2.25;;;;;;;4.33;100.00;93341.25;2098018;28;20021;-82
2021/10/13 01:52:02;;;;;;;3.13;2.60;;;;;;;4.28;100.00;93345.00;2106593;28;20028;-79
2021/10/13 01:53:06;;;;;;;2.90;2.10;;;;;;;4.27;100.00;93348.78;2117642;27;20362;-80
2021/10/13 01:54:07;;;;;;;3.53;2.45;;;;;;;4.25;100.00;93351.03;2114732;28;20027;-79
2021/10/13 01:55:10;;;;;;;3.20;2.50;;;;;;;4.15;100.00;93344.56;2114745;28;20563;-79
2021/10/13 01:56:13;;;;;;;2.90;2.60;;;;;;;4.26;100.00;93342.00;2109656;28;20020;-81
2021/10/13 01:57:16;;;;;;;2.50;2.30;;;;;;;4.13;100.00;93341.53;2098299;28;20521;-81
2021/10/13 01:58:18;;;;;;;3.28;2.05;;;;;;;4.12;100.00;93342.63;2106889;28;20104;-78
2021/10/13 01:59:22;;;;;;;2.50;2.30;;;;;;;4.08;100.00;93347.16;2123043;27;20103;-81
2021/10/13 02:00:25;;;;;;;2.38;2.20;;;;;;;4.15;100.00;93349.09;2115045;28;20027;-78
2021/10/13 02:01:29;;;;;;;2.70;2.50;;;;;;;4.28;100.00;93345.00;2114923;28;20071;-79
2021/10/13 02:02:31;;;;;;;3.58;2.90;;;;;;;4.16;100.00;93347.97;2106809;28;20071;-79
2021/10/13 02:03:36;;;;;;;2.58;2.38;;;;;;;4.15;100.00;93341.16;2114680;28;20387;-79
2021/10/13 02:04:41;;;;;;;3.35;2.70;;;;;;;4.12;100.00;93355.13;2098197;28;20520;-81
2021/10/13 02:05:44;;;;;;;2.60;2.40;;;;;;;4.03;100.00;93356.19;2107500;28;20520;-78
2021/10/13 02:06:48;;;;;;;3.03;2.72;;;;;;;4.01;100.00;93353.16;2118247;27;20028;-81
2021/10/13 02:07:52;;;;;;;2.80;2.60;;;;;;;4.02;100.00;93359.97;2132262;27;20029;-79
2021/10/13 02:08:56;;;;;;;2.72;2.50;;;;;;;3.95;100.00;93367.09;2129130;27;20028;-80
2021/10/13 02:10:01;;;;;;;2.63;2.42;;;;;;;3.97;100.00;93362.97;2123971;27;20031;-81
2021/10/13 02:11:04;;;;;;;2.97;2.70;;;;;;;3.92;100.00;93362.53;2132444;27;20463;-81
2021/10/13 02:12:06;;;;;;;2.40;2.20;;;;;;;3.81;100.00;93366.97;2123137;27;20075;-82
2021/10/13 02:13:08;;;;;;;2.95;2.65;;;;;;;3.87;100.00;93358.34;2106204;28;20047;-79
2021/10/13 02:14:12;;;;;;;2.97;2.45;;;;;;;3.74;100.00;93367.69;2106436;28;20020;-79
2021/10/13 02:15:15;;;;;;;3.63;2.35;;;;;;;3.75;100.00;93369.22;2115130;28;20039;-81
2021/10/13 02:16:18;;;;;;;2.60;2.40;;;;;;;3.67;100.00;93372.91;2119056;28;20034;-80
2021/10/13 02:17:21;;;;;;;4.05;2.28;;;;;;;3.75;100.00;93372.63;2111400;28;20589;-80
2021/10/13 02:18:27;;;;;;;8.15;2.58;;;;;;;3.75;100.00;93369.97;2090585;28;20059;-80
2021/10/13 02:19:29;;;;;;;2.40;2.20;;;;;;;3.69;100.00;93381.25;2090255;28;20021;-80
2021/10/13 02:20:30;;;;;;;2.97;2.13;;;;;;;3.62;100.00;93381.94;2106290;28;20101;-79
2021/10/13 02:21:35;;;;;;;2.03;1.92;;;;;;;3.73;100.00;93384.66;2114845;28;20019;-79
2021/10/13 02:22:40;;;;;;;2.10;1.95;;;;;;;3.67;100.00;93386.88;2107346;28;20066;-80
2021/10/13 02:23:42;;;;;;;3.65;2.50;;;;;;;3.63;100.00;93385.34;2099119;28;20473;-80
2021/10/13 02:24:51;;;;;;;3.70;2.40;;;;;;;3.68;100.00;93383.13;2098551;28;20024;-80
2021/10/13 02:25:54;;;;;;;3.33;2.42;;;;;;;3.50;100.00;93384.84;2104727;28;20480;-81
2021/10/13 02:27:07;;;;;;;3.45;2.20;;;;;;;3.56;100.00;93386.06;2115052;28;20376;-80
2021/10/13 02:28:14;;;;;;;2.28;2.13;;;;;;;3.50;100.00;93395.41;2106196;28;20370;-80
2021/10/13 02:29:20;;;;;;;2.40;2.20;;;;;;;3.56;100.00;93398.47;2107858;28;20061;-78
2021/10/13 02:30:20;;;;;;;2.47;2.28;;;;;;;3.67;100.00;93391.41;2114563;28;20015;-81
2021/10/13 02:31:21;;;;;;;3.58;2.70;;;;;;;3.64;100.00;93400.81;2106297;28;20032;-80
2021/10/13 02:32:24;;;;;;;2.55;2.35;;;;;;;3.60;100.00;93396.63;2106398;28;20481;-78
2021/10/13 02:33:26;;;;;;;2.60;2.20;;;;;;;3.53;100.00;93394.69;2106476;28;20031;-82
2021/10/13 02:34:27;;;;;;;2.70;2.47;;;;;;;3.55;100.00;93395.09;2106454;28;20030;-79
2021/10/13 02:35:28;;;;;;;2.63;2.40;;;;;;;3.56;100.00;93401.91;2106495;28;20027;-80
2021/10/13 02:36:29;;;;;;;2.45;2.25;;;;;;;3.60;100.00;93407.22;2114647;28;20034;-78
2021/10/13 02:37:29;;;;;;;2.92;2.35;;;;;;;3.73;100.00;93408.47;2114567;28;20023;-80
2021/10/13 02:38:31;;;;;;;2.92;2.72;;;;;;;3.68;100.00;93406.16;2114637;28;20080;-80
2021/10/13 02:39:32;;;;;;;2.97;2.67;;;;;;;3.71;100.00;93402.78;2106347;28;20403;-79
2021/10/13 02:40:33;;;;;;;2.80;2.60;;;;;;;3.69;100.00;93403.16;2098267;28;20061;-80
2021/10/13 02:41:36;;;;;;;3.35;2.60;;;;;;;3.70;100.00;93401.28;2106324;28;20020;-81
2021/10/13 02:42:38;;;;;;;6.50;3.15;;;;;;;3.59;100.00;93409.09;2114708;28;20813;-79
2021/10/13 02:43:40;;;;;;;2.90;2.70;;;;;;;3.61;100.00;93406.88;2115177;28;20051;-80
2021/10/13 02:44:41;;;;;;;3.70;2.78;;;;;;;3.68;100.00;93417.47;2105987;28;20047;-80
2021/10/13 02:45:49;;;;;;;2.90;2.70;;;;;;;3.74;100.00;93404.72;2106408;28;20024;-80
2021/10/13 02:46:53;;;;;;;3.03;2.80;;;;;;;3.66;100.00;93411.81;2114483;28;20778;-80
2021/10/13 02:47:58;;;;;;;3.38;2.97;;;;;;;3.65;100.00;93409.53;2115110;28;20468;-79
2021/10/13 02:49:12;;;;;;;2.47;2.28;;;;;;;3.64;100.00;93418.56;2106198;28;20022;-82
2021/10/13 02:50:17;;;;;;;2.78;2.58;;;;;;;3.73;100.00;93403.97;2093605;28;20048;-80
2021/10/13 02:51:28;;;;;;;3.45;2.38;;;;;;;3.81;100.00;93411.94;2098334;28;20024;-79
2021/10/13 02:52:36;;;;;;;3.00;2.80;;;;;;;3.93;100.00;93403.72;2099217;28;20055;-80
2021/10/13 02:53:51;;;;;;;2.80;2.60;;;;;;;3.89;100.00;93414.28;2107374;28;20485;-80
2021/10/13 02:54:57;;;;;;;3.22;2.92;;;;;;;3.89;100.00;93418.81;2097841;28;20094;-82
2021/10/13 02:56:10;;;;;;;4.97;3.13;;;;;;;3.89;100.00;93413.50;2086610;28;20027;-80
2021/10/13 02:57:13;;;;;;;2.85;2.65;;;;;;;3.86;100.00;93420.28;2092907;28;20055;-80
2021/10/13 02:58:26;;;;;;;8.50;2.58;;;;;;;3.82;100.00;93421.38;2106714;28;20020;-80
2021/10/13 02:59:47;;;;;;;4.78;2.92;;;;;;;3.87;100.00;93415.78;2114738;28;20034;-81
2021/10/13 03:00:50;;;;;;;3.47;3.15;;;;;;;3.95;100.00;93415.47;2117583;28;20024;-81
2021/10/13 03:01:56;;;;;;;3.28;3.00;;;;;;;3.96;100.00;93421.50;2123697;28;20477;-81
2021/10/13 03:03:03;;;;;;;3.10;2.80;;;;;;;3.92;100.00;93423.38;2114525;28;20387;-80
2021/10/13 03:04:09;;;;;;;5.30;3.30;;;;;;;3.95;100.00;93426.03;2115403;28;20015;-81
2021/10/13 03:05:21;;;;;;;2.70;2.50;;;;;;;3.97;100.00;93421.13;2105972;28;20023;-80
2021/10/13 03:06:27;;;;;;;3.00;2.80;;;;;;;4.01;100.00;93418.53;2099409;28;20035;-80
2021/10/13 03:07:37;;;;;;;3.33;2.72;;;;;;;4.00;100.00;93422.31;2098727;28;20020;-78
2021/10/13 03:08:41;;;;;;;3.60;3.30;;;;;;;4.11;100.00;93422.38;2108210;28;20020;-81
2021/10/13 03:09:52;;;;;;;3.53;3.22;;;;;;;4.08;100.00;93429.16;2105964;27;20165;-79
2021/10/13 03:10:57;;;;;;;3.33;3.03;;;;;;;4.03;100.00;93432.13;2116181;27;20383;-79
2021/10/13 03:12:01;;;;;;;3.97;3.67;;;;;;;4.01;100.00;93427.22;2116308;28;20468;-80
2021/10/13 03:13:06;;;;;;;4.18;3.78;;;;;;;3.99;100.00;93429.44;2108377;28;20063;-81
2021/10/13 03:14:07;;;;;;;4.47;4.07;;;;;;;4.02;100.00;93431.38;2108175;28;20058;-81
2021/10/13 03:15:11;;;;;;;4.70;4.30;;;;;;;4.06;100.00;93420.06;2116361;27;20019;-80
2021/10/13 03:16:13;;;;;;;5.32;4.68;;;;;;;4.06;100.00;93422.72;2124702;27;20027;-81
2021/10/13 03:17:16;;;;;;;4.78;4.30;;;;;;;4.13;100.00;93418.25;2116144;28;20024;-80
2021/10/13 03:18:17;;;;;;;5.18;4.50;;;;;;;4.10;100.00;93424.25;2124712;27;20038;-81
2021/10/13 03:19:20;;;;;;;4.55;3.95;;;;;;;4.18;100.00;93423.19;2105839;28;20028;-81
2021/10/13 03:20:23;;;;;;;6.90;4.18;;;;;;;4.20;100.00;93418.28;2108468;28;20481;-79
2021/10/13 03:21:27;;;;;;;4.38;4.07;;;;;;;4.20;100.00;93412.22;2107691;28;20024;-80
2021/10/13 03:22:28;;;;;;;5.45;4.95;;;;;;;4.22;100.00;93410.00;2100133;28;20064;-78
2021/10/13 03:23:29;;;;;;;5.18;4.57;;;;;;;4.25;100.00;93411.88;2107705;28;20020;-80
2021/10/13 03:24:30;;;;;;;6.45;4.95;;;;;;;4.32;100.00;93421.78;2099511;28;20391;-78
2021/10/13 03:25:32;;;;;;;4.75;4.35;;;;;;;4.26;100.00;93419.47;2099297;28;20066;-79
2021/10/13 03:26:33;;;;;;;5.25;4.75;;;;;;;4.28;100.00;93416.44;2091415;28;20086;-79
2021/10/13 03:27:34;;;;;;;5.47;4.97;;;;;;;4.36;100.00;93425.19;2099087;28;20432;-78
2021/10/13 03:28:37;;;;;;;5.15;4.68;;;;;;;4.33;100.00;93416.09;2091928;28;20025;-80
2021/10/13 03:29:42;;;;;;;5.40;4.63;;;;;;;4.33;100.00;93418.00;2099618;28;20027;-80
2021/10/13 03:30:44;;;;;;;5.97;4.55;;;;;;;4.29;100.00;93412.66;2108384;27;20110;-80
2021/10/13 03:31:45;;;;;;;6.03;4.90;;;;;;;4.28;100.00;93419.09;2124360;27;20027;-79
2021/10/13 03:32:47;;;;;;;5.05;4.55;;;;;;;4.43;100.00;93420.69;2131105;27;20026;-80
2021/10/13 03:33:49;;;;;;;5.30;4.80;;;;;;;4.42;100.00;93413.88;2124950;27;20015;-81
2021/10/13 03:34:50;;;;;;;6.35;5.22;;;;;;;4.36;100.00;93420.66;2115726;28;20525;-79
2021/10/13 03:35:51;;;;;;;5.80;5.30;;;;;;;4.45;100.00;93418.44;2107302;28;20028;-80
2021/10/13 03:36:51;;;;;;;5.50;4.75;;;;;;;4.41;100.00;93415.03;2115859;28;20020;-80
2021/10/13 03:37:55;;;;;;;5.88;4.88;;;;;;;4.42;100.00;93418.44;2124279;27;20023;-79
2021/10/13 03:38:55;;;;;;;5.80;5.28;;;;;;;4.44;100.00;93414.28;2107560;28;20061;-81
2021/10/13 03:39:56;;;;;;;5.70;5.20;;;;;;;4.30;100.00;93411.53;2107267;28;20439;-81
2021/10/13 03:40:58;;;;;;;6.03;4.82;;;;;;;4.28;100.00;93411.91;2124336;27;20015;-80
2021/10/13 03:42:02;;;;;;;6.05;5.45;;;;;;;4.27;100.00;93415.69;2133381;27;20019;-81
2021/10/13 03:43:03;;;;;;;8.43;5.30;;;;;;;4.30;100.00;93419.47;2115691;28;20901;-79
2021/10/13 03:44:05;;;;;;;6.43;5.47;;;;;;;4.30;100.00;93419.47;2115664;28;20019;-78
2021/10/13 03:45:06;;;;;;;6.28;5.57;;;;;;;4.19;100.00;93422.06;2124263;27;20114;-79
2021/10/13 03:46:07;;;;;;;8.23;5.93;;;;;;;4.15;100.00;93426.56;2107366;28;20066;-79
2021/10/13 03:47:09;;;;;;;8.05;6.55;;;;;;;4.15;100.00;93428.44;2107312;28;20447;-80
2021/10/13 03:48:11;;;;;;;11.73;6.57;;;;;;;4.17;100.00;93426.19;2124227;27;20106;-79
2021/10/13 03:49:12;;;;;;;6.78;6.10;;;;;;;4.11;100.00;93432.94;2115656;28;20024;-79
2021/10/13 03:50:14;;;;;;;8.40;5.90;;;;;;;4.04;100.00;93431.03;2107393;28;20660;-80
2021/10/13 03:51:15;;;;;;;6.93;6.22;;;;;;;4.06;100.00;93436.69;2107559;28;20035;-81
2021/10/13 03:52:16;;;;;;;8.55;6.43;;;;;;;3.97;100.00;93429.06;2106010;28;20020;-81
2021/10/13 03:53:17;;;;;;;7.85;6.13;;;;;;;3.91;100.00;93430.53;2106895;28;20031;-81
2021/10/13 03:54:18;;;;;;;6.88;6.18;;;;;;;3.93;100.00;93422.25;2107290;28;20103;-79
2021/10/13 03:55:20;;;;;;;7.07;5.65;;;;;;;3.85;100.00;93429.34;2115784;28;20092;-79
2021/10/13 03:56:21;;;;;;;8.38;6.13;;;;;;;3.80;100.00;93427.03;2124698;27;20472;-79
2021/10/13 03:57:22;;;;;;;7.50;6.40;;;;;;;3.73;100.00;93427.75;2107184;28;20031;-80
2021/10/13 03:58:23;;;;;;;8.38;5.80;;;;;;;3.75;100.00;93425.47;2107217;28;20035;-79
2021/10/13 03:59:24;;;;;;;6.85;6.10;;;;;;;3.77;100.00;93433.03;2124632;27;20022;-79
2021/10/13 04:00:25;;;;;;;8.07;6.28;;;;;;;3.71;100.00;93435.25;2115655;28;20031;-80
2021/10/13 04:01:26;;;;;;;7.80;5.55;;;;;;;3.61;100.00;93433.28;2115596;28;20033;-81
2021/10/13 04:02:27;;;;;;;8.00;5.43;;;;;;;3.61;100.00;93425.38;2115617;28;20477;-79
2021/10/13 04:03:28;;;;;;;6.47;5.53;;;;;;;3.58;100.00;93441.19;2107216;28;20131;-80
2021/10/13 04:04:29;;;;;;;7.15;5.72;;;;;;;3.51;100.00;93432.06;2115524;28;20043;-78
2021/10/13 04:05:31;;;;;;;6.80;5.60;;;;;;;3.52;100.00;93441.50;2115817;27;20020;-80
2021/10/13 04:06:32;;;;;;;8.55;5.50;;;;;;;3.52;100.00;93438.88;2124713;27;20025;-79
2021/10/13 04:07:34;;;;;;;6.78;5.97;;;;;;;3.45;100.00;93440.66;2124723;27;20381;-81
2021/10/13 04:08:35;;;;;;;8.15;5.07;;;;;;;3.39;100.00;93445.53;2106821;28;20099;-80
2021/10/13 04:09:36;;;;;;;6.90;5.47;;;;;;;3.36;100.00;93446.25;2095324;28;20427;-79
2021/10/13 04:10:37;;;;;;;7.57;5.63;;;;;;;3.36;100.00;93450.78;2107102;28;20048;-78
2021/10/13 04:11:38;;;;;;;7.35;5.53;;;;;;;3.28;100.00;93447.28;2115578;28;20023;-80
2021/10/13 04:12:40;;;;;;;10.70;5.38;;;;;;;3.24;100.00;93449.88;2106875;28;20035;-79
2021/10/13 04:13:41;;;;;;;7.63;5.30;;;;;;;3.26;100.00;93444.25;2107383;28;20024;-81
2021/10/13 04:14:42;;;;;;;4.72;4.32;;;;;;;3.26;100.00;93449.53;2115433;28;20031;-79
2021/10/13 04:15:43;;;;;;;7.50;5.05;;;;;;;3.23;100.00;93451.00;2113853;28;20076;-81
2021/10/13 04:16:44;;;;;;;6.00;4.45;;;;;;;3.14;100.00;93447.13;2106848;28;20016;-81
2021/10/13 04:17:45;;;;;;;10.73;5.32;;;;;;;3.15;100.00;93448.66;2098578;28;20031;-80
2021/10/13 04:18:46;;;;;;;7.93;5.78;;;;;;;3.10;100.00;93454.25;2098592;28;20485;-81
2021/10/13 04:19:47;;;;;;;6.82;5.13;;;;;;;3.01;100.00;93454.53;2090294;28;20021;-80
2021/10/13 04:20:48;;;;;;;6.45;5.38;;;;;;;3.06;100.00;93456.09;2098417;28;20085;-81
2021/10/13 04:21:50;;;;;;;7.47;5.30;;;;;;;3.14;100.00;93457.69;2106745;28;20020;-81
2021/10/13 04:22:51;;;;;;;5.75;5.15;;;;;;;3.16;100.00;93458.88;2115945;28;20138;-81
2021/10/13 04:23:52;;;;;;;8.70;5.40;;;;;;;3.24;100.00;93460.44;2115863;28;20092;-78
2021/10/13 04:24:53;;;;;;;9.63;5.25;;;;;;;3.26;100.00;93460.88;2098391;28;20032;-81
2021/10/13 04:25:53;;;;;;;5.65;5.05;;;;;;;3.31;100.00;93459.03;2099137;28;20384;-80
2021/10/13 04:26:54;;;;;;;5.85;5.30;;;;;;;3.31;100.00;93464.31;2115871;28;20016;-78
2021/10/13 04:27:55;;;;;;;6.30;5.35;;;;;;;3.24;100.00;93464.97;2106814;28;20365;-79
2021/10/13 04:28:56;;;;;;;6.32;5.68;;;;;;;3.27;100.00;93472.19;2113914;28;20023;-81
2021/10/13 04:29:57;;;;;;;6.53;5.88;;;;;;;3.33;100.00;93464.69;2115513;28;20051;-80
2021/10/13 04:30:58;;;;;;;5.72;5.22;;;;;;;3.37;100.00;93471.53;2107118;28;20075;-79
2021/10/13 04:31:59;;;;;;;10.07;5.95;;;;;;;3.48;100.00;93471.66;2094684;28;20104;-79
2021/10/13 04:33:00;;;;;;;5.88;5.30;;;;;;;3.37;100.00;93471.53;2106863;28;20040;-81
2021/10/13 04:34:01;;;;;;;6.30;5.05;;;;;;;3.42;100.00;93476.50;2115365;28;20015;-79
2021/10/13 04:35:02;;;;;;;9.57;5.28;;;;;;;3.35;100.00;93479.06;2115202;28;20083;-79
2021/10/13 04:36:03;;;;;;;8.88;5.75;;;;;;;3.41;100.00;93474.22;2115353;28;20496;-80
2021/10/13 04:37:04;;;;;;;4.90;4.38;;;;;;;3.40;100.00;93483.28;2098417;28;20075;-81
2021/10/13 04:38:06;;;;;;;8.20;5.15;;;;;;;3.45;100.00;93480.31;2107073;28;20020;-79
2021/10/13 04:39:07;;;;;;;12.18;5.68;;;;;;;3.46;100.00;93482.56;2124424;27;20019;-79
2021/10/13 04:40:08;;;;;;;6.97;4.60;;;;;;;3.41;100.00;93485.56;2115423;28;20055;-79
2021/10/13 04:41:09;;;;;;;5.80;4.63;;;;;;;3.50;100.00;93485.28;2115527;27;20019;-79
2021/10/13 04:42:10;;;;;;;5.95;3.88;;;;;;;3.31;100.00;93480.91;2115259;28;20108;-80
2021/10/13 04:43:11;;;;;;;12.80;4.18;;;;;;;3.37;100.00;93484.75;2106770;28;20503;-79
2021/10/13 04:44:12;;;;;;;6.85;4.28;;;;;;;3.35;100.00;93484.38;2114097;28;20103;-81
2021/10/13 04:45:13;;;;;;;9.07;4.35;;;;;;;3.42;100.00;93484.41;2122930;27;20030;-79
2021/10/13 04:46:14;;;;;;;5.57;4.35;;;;;;;3.35;100.00;93487.00;2111793;28;20714;-80
2021/10/13 04:47:15;;;;;;;6.15;3.90;;;;;;;3.42;100.00;93491.59;2106127;28;20032;-79
2021/10/13 04:48:16;;;;;;;5.78;4.30;;;;;;;3.39;100.00;93482.53;2122844;27;20023;-80
2021/10/13 04:49:17;;;;;;;7.93;5.22;;;;;;;3.34;100.00;93488.13;2123009;27;20034;-77
2021/10/13 04:50:18;;;;;;;4.43;4.03;;;;;;;3.40;100.00;93491.19;2116556;27;20076;-81
2021/10/13 04:51:19;;;;;;;4.47;3.58;;;;;;;3.33;100.00;93486.59;2123487;27;20030;-78
2021/10/13 04:52:20;;;;;;;8.13;4.30;;;;;;;3.32;100.00;93479.78;2114904;28;20024;-78
2021/10/13 04:53:21;;;;;;;8.43;3.88;;;;;;;3.27;100.00;93485.41;2114760;28;20404;-80
2021/10/13 04:54:23;;;;;;;5.28;3.75;;;;;;;3.27;100.00;93488.78;2106350;28;20094;-79
2021/10/13 04:55:24;;;;;;;8.20;4.68;;;;;;;3.26;100.00;93486.53;2107083;28;20028;-78
2021/10/13 04:56:25;;;;;;;5.13;3.92;;;;;;;3.33;100.00;93483.94;2107544;28;20031;-80
2021/10/13 04:57:26;;;;;;;5.38;4.20;;;;;;;3.37;100.00;93482.09;2106336;28;20488;-81
2021/10/13 04:58:28;;;;;;;5.60;3.90;;;;;;;3.41;100.00;93490.06;2089823;28;20052;-80
2021/10/13 04:59:29;;;;;;;6.95;4.20;;;;;;;3.51;100.00;93489.44;2106636;28;20070;-82
2021/10/13 05:00:30;;;;;;;5.88;4.13;;;;;;;3.50;100.00;93493.19;2131440;27;20121;-80
2021/10/13 05:01:31;;;;;;;4.25;3.90;;;;;;;3.54;100.00;93496.63;2131832;27;20039;-79
2021/10/13 05:02:32;;;;;;;5.20;3.83;;;;;;;3.56;100.00;93493.63;2106152;28;20465;-80
2021/10/13 05:03:34;;;;;;;6.38;4.22;;;;;;;3.58;100.00;93497.44;2115141;27;20031;-79
2021/10/13 05:04:34;;;;;;;4.97;3.67;;;;;;;3.49;100.00;93497.72;2131808;27;20021;-81